RKSY/SSN METAR and TAF weather

Enter ICAO airport designator
Station Type Date Time Source
RKSY METAR 2020/02/06 06:58 UTC NOAA

RKSY 060658Z AUTO 00000KT 9999 CLR 00/M17 A3048 RMK AO2 SLP325 T10041174 $


Station Type Date Time Source
RKSY Decoded METAR 2020/02/06 06:58 UTC NOAA

Yongsan / H-208 Hp, Korea, South (RKSY) 37-31N 126-59E
Feb 06, 2020 - 01:58 AM EST / 2020.02.06 0658 UTC
Wind: Calm:0
Visibility: greater than 7 mile(s):0
Sky conditions: clear
Temperature: 31.3 F (-0.4 C)
Dew Point: 0.7 F (-17.4 C)
Relative Humidity: 26%
Pressure (altimeter): 30.48 in. Hg (1032 hPa)
ob: RKSY 060658Z AUTO 00000KT 9999 CLR 00/M17 A3048 RMK AO2 SLP325 T10041174
cycle: 7

Station Type Date Time Source
RKSY TAF UTC NOAA

Error!

Example: see airport list